Dresden, Missouri
Current Conditions -  °F | °C
As of 10:53 PM on Monday 20 Oct 2014 (Local Time) from KDMO Reporting Station
Clear Clear  
Wind Chill: 57°   Ceiling: Unl
Heat Index: 57°   Visibility: 10mi
Dew Point: 42°   Wind: 0mph
Humidity: 57%   Direction: NA
Pressure: 30.08"   Gusts: NA
Location:  38.6763°N, 93.2612°W
Report Text: KDMO 210353Z AUTO 00000KT 10SM CLR 14/06 A3008 RMK AO2 SLP182 T01390056
Loading
Personal Weather Stations






























Interactive Weather Map New forecast layout! Learn more

10-Day Weather Forecast

Advertisements
Track Severe Weather on mobile